sensor_id;sensor_type;location;lat;lon;timestamp;temperature;humidity
64888;DHT22;51386;53.082;8.816;2022-12-29T00:00:05;11.90;87.90
64888;DHT22;51386;53.082;8.816;2022-12-29T00:02:33;11.90;87.70
64888;DHT22;51386;53.082;8.816;2022-12-29T00:05:01;11.90;87.50
64888;DHT22;51386;53.082;8.816;2022-12-29T00:07:28;11.90;87.50
64888;DHT22;51386;53.082;8.816;2022-12-29T00:09:55;11.90;87.50
64888;DHT22;51386;53.082;8.816;2022-12-29T00:12:22;12.00;87.40
64888;DHT22;51386;53.082;8.816;2022-12-29T00:14:49;12.00;87.40
64888;DHT22;51386;53.082;8.816;2022-12-29T00:17:34;12.00;87.40
64888;DHT22;51386;53.082;8.816;2022-12-29T00:20:03;12.00;87.30
64888;DHT22;51386;53.082;8.816;2022-12-29T00:22:49;12.00;87.40
64888;DHT22;51386;53.082;8.816;2022-12-29T00:25:36;12.00;87.40
64888;DHT22;51386;53.082;8.816;2022-12-29T00:28:21;12.00;87.60
64888;DHT22;51386;53.082;8.816;2022-12-29T00:31:07;12.00;87.70
64888;DHT22;51386;53.082;8.816;2022-12-29T00:33:58;12.10;87.70
64888;DHT22;51386;53.082;8.816;2022-12-29T00:36:45;12.10;87.80
64888;DHT22;51386;53.082;8.816;2022-12-29T00:39:14;12.20;87.80
64888;DHT22;51386;53.082;8.816;2022-12-29T00:42:04;12.20;87.80
64888;DHT22;51386;53.082;8.816;2022-12-29T00:45:07;12.20;87.90
64888;DHT22;51386;53.082;8.816;2022-12-29T00:47:34;12.20;87.90
64888;DHT22;51386;53.082;8.816;2022-12-29T00:50:01;12.20;87.90
64888;DHT22;51386;53.082;8.816;2022-12-29T00:52:30;12.20;88.00
64888;DHT22;51386;53.082;8.816;2022-12-29T00:54:57;12.30;88.20
64888;DHT22;51386;53.082;8.816;2022-12-29T00:57:24;12.30;88.20
64888;DHT22;51386;53.082;8.816;2022-12-29T00:59:51;12.30;88.40
64888;DHT22;51386;53.082;8.816;2022-12-29T01:02:18;12.30;88.60
64888;DHT22;51386;53.082;8.816;2022-12-29T01:04:45;12.20;88.60
64888;DHT22;51386;53.082;8.816;2022-12-29T01:07:12;12.30;88.60
64888;DHT22;51386;53.082;8.816;2022-12-29T01:09:41;12.30;88.70
64888;DHT22;51386;53.082;8.816;2022-12-29T01:12:26;12.30;88.50
64888;DHT22;51386;53.082;8.816;2022-12-29T01:15:11;12.30;88.40
64888;DHT22;51386;53.082;8.816;2022-12-29T01:17:40;12.30;88.20
64888;DHT22;51386;53.082;8.816;2022-12-29T01:20:08;12.30;87.90
64888;DHT22;51386;53.082;8.816;2022-12-29T01:22:37;12.40;87.90
64888;DHT22;51386;53.082;8.816;2022-12-29T01:25:06;12.40;87.80
64888;DHT22;51386;53.082;8.816;2022-12-29T01:27:34;12.40;87.70
64888;DHT22;51386;53.082;8.816;2022-12-29T01:30:01;12.40;87.60
64888;DHT22;51386;53.082;8.816;2022-12-29T01:32:28;12.40;87.40
64888;DHT22;51386;53.082;8.816;2022-12-29T01:34:55;12.40;87.40
64888;DHT22;51386;53.082;8.816;2022-12-29T01:37:22;12.50;87.40
64888;DHT22;51386;53.082;8.816;2022-12-29T01:39:49;12.50;87.30
64888;DHT22;51386;53.082;8.816;2022-12-29T01:42:19;12.50;87.20
64888;DHT22;51386;53.082;8.816;2022-12-29T01:44:53;12.60;87.20
64888;DHT22;51386;53.082;8.816;2022-12-29T01:47:34;12.60;87.10
64888;DHT22;51386;53.082;8.816;2022-12-29T01:50:08;12.60;87.00
64888;DHT22;51386;53.082;8.816;2022-12-29T01:52:42;12.60;87.00
64888;DHT22;51386;53.082;8.816;2022-12-29T01:55:15;12.50;87.00
64888;DHT22;51386;53.082;8.816;2022-12-29T01:57:47;12.60;86.90
64888;DHT22;51386;53.082;8.816;2022-12-29T02:00:17;12.60;86.80
64888;DHT22;51386;53.082;8.816;2022-12-29T02:02:46;12.70;86.80
64888;DHT22;51386;53.082;8.816;2022-12-29T02:05:23;12.70;86.60
64888;DHT22;51386;53.082;8.816;2022-12-29T02:07:54;12.70;86.50
64888;DHT22;51386;53.082;8.816;2022-12-29T02:10:22;12.70;86.30
64888;DHT22;51386;53.082;8.816;2022-12-29T02:12:53;12.70;86.20
64888;DHT22;51386;53.082;8.816;2022-12-29T02:15:30;12.70;86.20
64888;DHT22;51386;53.082;8.816;2022-12-29T02:18:17;12.70;86.10
64888;DHT22;51386;53.082;8.816;2022-12-29T02:27:48;12.80;85.80
64888;DHT22;51386;53.082;8.816;2022-12-29T02:30:36;12.80;85.70
64888;DHT22;51386;53.082;8.816;2022-12-29T02:33:18;12.80;85.50
64888;DHT22;51386;53.082;8.816;2022-12-29T02:35:58;12.80;85.50
64888;DHT22;51386;53.082;8.816;2022-12-29T02:38:46;12.90;85.50
64888;DHT22;51386;53.082;8.816;2022-12-29T02:41:28;12.80;85.40
64888;DHT22;51386;53.082;8.816;2022-12-29T02:44:04;12.90;85.30
64888;DHT22;51386;53.082;8.816;2022-12-29T02:46:44;12.80;85.20
64888;DHT22;51386;53.082;8.816;2022-12-29T02:49:19;12.90;85.30
64888;DHT22;51386;53.082;8.816;2022-12-29T02:51:57;12.90;85.20
64888;DHT22;51386;53.082;8.816;2022-12-29T02:54:29;12.90;86.00
64888;DHT22;51386;53.082;8.816;2022-12-29T02:57:15;12.90;85.10
64888;DHT22;51386;53.082;8.816;2022-12-29T02:59:58;12.90;85.10
64888;DHT22;51386;53.082;8.816;2022-12-29T03:02:48;12.90;85.10
64888;DHT22;51386;53.082;8.816;2022-12-29T03:05:46;13.00;85.30
64888;DHT22;51386;53.082;8.816;2022-12-29T03:08:28;13.00;85.20
64888;DHT22;51386;53.082;8.816;2022-12-29T03:11:03;12.90;85.10
64888;DHT22;51386;53.082;8.816;2022-12-29T03:13:41;13.00;85.30
64888;DHT22;51386;53.082;8.816;2022-12-29T03:16:41;13.00;85.20
64888;DHT22;51386;53.082;8.816;2022-12-29T03:19:15;13.00;85.10
64888;DHT22;51386;53.082;8.816;2022-12-29T03:21:49;13.00;85.00
64888;DHT22;51386;53.082;8.816;2022-12-29T03:24:43;13.10;85.10
64888;DHT22;51386;53.082;8.816;2022-12-29T03:27:18;13.00;85.10
64888;DHT22;51386;53.082;8.816;2022-12-29T03:29:52;13.00;85.10
64888;DHT22;51386;53.082;8.816;2022-12-29T03:32:25;13.00;85.10
64888;DHT22;51386;53.082;8.816;2022-12-29T03:34:59;13.10;85.00
64888;DHT22;51386;53.082;8.816;2022-12-29T03:37:31;13.10;85.00
64888;DHT22;51386;53.082;8.816;2022-12-29T03:40:04;13.10;85.00
64888;DHT22;51386;53.082;8.816;2022-12-29T03:42:34;13.00;85.30
64888;DHT22;51386;53.082;8.816;2022-12-29T03:45:04;13.00;85.60
64888;DHT22;51386;53.082;8.816;2022-12-29T03:47:33;13.00;85.70
64888;DHT22;51386;53.082;8.816;2022-12-29T03:50:01;13.10;85.90
64888;DHT22;51386;53.082;8.816;2022-12-29T03:52:28;13.10;86.20
64888;DHT22;51386;53.082;8.816;2022-12-29T03:54:55;13.10;86.20
64888;DHT22;51386;53.082;8.816;2022-12-29T03:57:22;13.10;86.80
64888;DHT22;51386;53.082;8.816;2022-12-29T03:59:49;13.00;87.40
64888;DHT22;51386;53.082;8.816;2022-12-29T04:02:16;13.00;87.40
64888;DHT22;51386;53.082;8.816;2022-12-29T04:04:44;13.00;87.80
64888;DHT22;51386;53.082;8.816;2022-12-29T04:07:12;13.00;88.20
64888;DHT22;51386;53.082;8.816;2022-12-29T04:09:39;12.90;88.90
64888;DHT22;51386;53.082;8.816;2022-12-29T04:12:06;12.90;89.60
64888;DHT22;51386;53.082;8.816;2022-12-29T04:14:33;12.90;90.00
64888;DHT22;51386;53.082;8.816;2022-12-29T04:17:00;12.80;90.20
64888;DHT22;51386;53.082;8.816;2022-12-29T04:19:27;12.80;90.30
64888;DHT22;51386;53.082;8.816;2022-12-29T04:21:54;12.70;90.40
64888;DHT22;51386;53.082;8.816;2022-12-29T04:24:22;12.70;90.40
64888;DHT22;51386;53.082;8.816;2022-12-29T04:26:49;12.70;90.50
64888;DHT22;51386;53.082;8.816;2022-12-29T04:29:16;12.70;90.50
64888;DHT22;51386;53.082;8.816;2022-12-29T04:31:43;12.70;90.50
64888;DHT22;51386;53.082;8.816;2022-12-29T04:34:10;12.70;90.50
64888;DHT22;51386;53.082;8.816;2022-12-29T04:36:37;12.70;90.50
64888;DHT22;51386;53.082;8.816;2022-12-29T04:39:06;12.70;90.40
64888;DHT22;51386;53.082;8.816;2022-12-29T04:41:35;12.70;90.30
64888;DHT22;51386;53.082;8.816;2022-12-29T04:44:02;12.70;90.20
64888;DHT22;51386;53.082;8.816;2022-12-29T04:46:29;12.60;90.20
64888;DHT22;51386;53.082;8.816;2022-12-29T04:48:56;12.70;90.20
64888;DHT22;51386;53.082;8.816;2022-12-29T04:51:23;12.70;90.10
64888;DHT22;51386;53.082;8.816;2022-12-29T04:53:50;12.70;90.00
64888;DHT22;51386;53.082;8.816;2022-12-29T04:56:17;12.80;89.80
64888;DHT22;51386;53.082;8.816;2022-12-29T04:58:46;12.80;89.50
64888;DHT22;51386;53.082;8.816;2022-12-29T05:01:13;12.80;89.40
64888;DHT22;51386;53.082;8.816;2022-12-29T05:03:40;12.90;89.00
64888;DHT22;51386;53.082;8.816;2022-12-29T05:06:07;12.90;88.40
64888;DHT22;51386;53.082;8.816;2022-12-29T05:08:34;13.00;88.30
64888;DHT22;51386;53.082;8.816;2022-12-29T05:11:01;13.00;88.00
64888;DHT22;51386;53.082;8.816;2022-12-29T05:13:28;13.00;88.30
64888;DHT22;51386;53.082;8.816;2022-12-29T05:15:56;13.00;88.50
64888;DHT22;51386;53.082;8.816;2022-12-29T05:18:23;13.00;88.70
64888;DHT22;51386;53.082;8.816;2022-12-29T05:20:50;13.00;88.90
64888;DHT22;51386;53.082;8.816;2022-12-29T05:23:17;12.90;88.90
64888;DHT22;51386;53.082;8.816;2022-12-29T05:25:44;12.90;89.00
64888;DHT22;51386;53.082;8.816;2022-12-29T05:28:13;12.90;89.20
64888;DHT22;51386;53.082;8.816;2022-12-29T05:30:41;12.80;89.40
64888;DHT22;51386;53.082;8.816;2022-12-29T05:33:09;12.80;89.50
64888;DHT22;51386;53.082;8.816;2022-12-29T05:35:38;12.70;89.80
64888;DHT22;51386;53.082;8.816;2022-12-29T05:38:05;12.60;89.80
64888;DHT22;51386;53.082;8.816;2022-12-29T05:40:32;12.50;90.10
64888;DHT22;51386;53.082;8.816;2022-12-29T05:42:58;12.50;90.20
64888;DHT22;51386;53.082;8.816;2022-12-29T05:45:25;12.40;90.30
64888;DHT22;51386;53.082;8.816;2022-12-29T05:47:52;12.40;90.40
64888;DHT22;51386;53.082;8.816;2022-12-29T05:50:21;12.40;90.60
64888;DHT22;51386;53.082;8.816;2022-12-29T05:52:48;12.40;90.50
64888;DHT22;51386;53.082;8.816;2022-12-29T05:55:15;12.40;90.60
64888;DHT22;51386;53.082;8.816;2022-12-29T05:57:42;12.40;90.60
64888;DHT22;51386;53.082;8.816;2022-12-29T06:00:10;12.50;90.60
64888;DHT22;51386;53.082;8.816;2022-12-29T06:02:38;12.50;90.60
64888;DHT22;51386;53.082;8.816;2022-12-29T06:05:05;12.50;90.60
64888;DHT22;51386;53.082;8.816;2022-12-29T06:07:34;12.50;90.60
64888;DHT22;51386;53.082;8.816;2022-12-29T06:10:01;12.50;90.50
64888;DHT22;51386;53.082;8.816;2022-12-29T06:12:29;12.50;90.50
64888;DHT22;51386;53.082;8.816;2022-12-29T06:14:55;12.60;90.50
64888;DHT22;51386;53.082;8.816;2022-12-29T06:17:23;12.60;90.50
64888;DHT22;51386;53.082;8.816;2022-12-29T06:19:50;12.60;90.40
64888;DHT22;51386;53.082;8.816;2022-12-29T06:22:16;12.70;90.40
64888;DHT22;51386;53.082;8.816;2022-12-29T06:24:45;12.70;90.30
64888;DHT22;51386;53.082;8.816;2022-12-29T06:27:12;12.70;90.30
64888;DHT22;51386;53.082;8.816;2022-12-29T06:29:40;12.70;90.30
64888;DHT22;51386;53.082;8.816;2022-12-29T06:32:07;12.80;90.20
64888;DHT22;51386;53.082;8.816;2022-12-29T06:34:34;12.80;89.90
64888;DHT22;51386;53.082;8.816;2022-12-29T06:37:01;12.80;89.50
64888;DHT22;51386;53.082;8.816;2022-12-29T06:39:28;12.80;89.40
64888;DHT22;51386;53.082;8.816;2022-12-29T06:41:57;12.80;89.30
64888;DHT22;51386;53.082;8.816;2022-12-29T06:44:24;12.90;89.40
64888;DHT22;51386;53.082;8.816;2022-12-29T06:46:51;12.80;89.30
64888;DHT22;51386;53.082;8.816;2022-12-29T06:49:17;12.80;89.20
64888;DHT22;51386;53.082;8.816;2022-12-29T06:51:45;12.80;89.10
64888;DHT22;51386;53.082;8.816;2022-12-29T06:54:12;12.80;89.30
64888;DHT22;51386;53.082;8.816;2022-12-29T06:56:39;12.80;89.50
64888;DHT22;51386;53.082;8.816;2022-12-29T06:59:09;12.80;89.50
64888;DHT22;51386;53.082;8.816;2022-12-29T07:01:36;12.80;89.70
64888;DHT22;51386;53.082;8.816;2022-12-29T07:04:03;12.80;89.80
64888;DHT22;51386;53.082;8.816;2022-12-29T07:06:30;12.80;90.20
64888;DHT22;51386;53.082;8.816;2022-12-29T07:08:57;12.80;90.20
64888;DHT22;51386;53.082;8.816;2022-12-29T07:11:25;12.70;90.10
64888;DHT22;51386;53.082;8.816;2022-12-29T07:13:52;12.70;90.20
64888;DHT22;51386;53.082;8.816;2022-12-29T07:16:20;12.60;90.20
64888;DHT22;51386;53.082;8.816;2022-12-29T07:18:47;12.70;90.20
64888;DHT22;51386;53.082;8.816;2022-12-29T07:21:14;12.60;90.10
64888;DHT22;51386;53.082;8.816;2022-12-29T07:23:41;12.60;90.10
64888;DHT22;51386;53.082;8.816;2022-12-29T07:26:12;12.60;90.00
64888;DHT22;51386;53.082;8.816;2022-12-29T07:28:40;12.50;89.60
64888;DHT22;51386;53.082;8.816;2022-12-29T07:31:14;12.50;89.30
64888;DHT22;51386;53.082;8.816;2022-12-29T07:33:44;12.40;89.00
64888;DHT22;51386;53.082;8.816;2022-12-29T07:36:13;12.40;88.80
64888;DHT22;51386;53.082;8.816;2022-12-29T07:38:40;12.40;88.80
64888;DHT22;51386;53.082;8.816;2022-12-29T07:41:08;12.40;88.80
64888;DHT22;51386;53.082;8.816;2022-12-29T07:43:35;12.40;88.70
64888;DHT22;51386;53.082;8.816;2022-12-29T07:46:04;12.40;88.80
64888;DHT22;51386;53.082;8.816;2022-12-29T07:48:31;12.40;88.70
64888;DHT22;51386;53.082;8.816;2022-12-29T07:51:01;12.30;88.30
64888;DHT22;51386;53.082;8.816;2022-12-29T07:53:28;12.30;88.30
64888;DHT22;51386;53.082;8.816;2022-12-29T07:55:55;12.30;88.00
64888;DHT22;51386;53.082;8.816;2022-12-29T07:58:22;12.40;88.20
64888;DHT22;51386;53.082;8.816;2022-12-29T08:00:53;12.40;88.00
64888;DHT22;51386;53.082;8.816;2022-12-29T08:03:20;12.40;87.90
64888;DHT22;51386;53.082;8.816;2022-12-29T08:05:48;12.40;87.40
64888;DHT22;51386;53.082;8.816;2022-12-29T08:08:16;12.40;87.00
64888;DHT22;51386;53.082;8.816;2022-12-29T08:10:43;12.40;87.00
64888;DHT22;51386;53.082;8.816;2022-12-29T08:13:10;12.40;86.50
64888;DHT22;51386;53.082;8.816;2022-12-29T08:15:38;12.40;85.80
64888;DHT22;51386;53.082;8.816;2022-12-29T08:18:06;12.40;85.80
64888;DHT22;51386;53.082;8.816;2022-12-29T08:20:32;12.40;85.70
64888;DHT22;51386;53.082;8.816;2022-12-29T08:22:59;12.40;85.10
64888;DHT22;51386;53.082;8.816;2022-12-29T08:25:28;12.40;84.60
64888;DHT22;51386;53.082;8.816;2022-12-29T08:27:54;12.40;84.00
64888;DHT22;51386;53.082;8.816;2022-12-29T08:30:21;12.40;83.90
64888;DHT22;51386;53.082;8.816;2022-12-29T08:32:48;12.40;83.50
64888;DHT22;51386;53.082;8.816;2022-12-29T08:35:15;12.50;83.60
64888;DHT22;51386;53.082;8.816;2022-12-29T08:37:42;12.50;83.20
64888;DHT22;51386;53.082;8.816;2022-12-29T08:40:10;12.50;82.70
64888;DHT22;51386;53.082;8.816;2022-12-29T08:42:38;12.50;82.70
64888;DHT22;51386;53.082;8.816;2022-12-29T08:45:06;12.50;82.90
64888;DHT22;51386;53.082;8.816;2022-12-29T08:47:35;12.50;82.80
64888;DHT22;51386;53.082;8.816;2022-12-29T08:50:02;12.50;82.80
64888;DHT22;51386;53.082;8.816;2022-12-29T08:52:30;12.50;82.00
64888;DHT22;51386;53.082;8.816;2022-12-29T08:54:57;12.50;81.80
64888;DHT22;51386;53.082;8.816;2022-12-29T08:57:24;12.60;82.10
64888;DHT22;51386;53.082;8.816;2022-12-29T08:59:52;12.60;82.30
64888;DHT22;51386;53.082;8.816;2022-12-29T09:02:19;12.70;81.70
64888;DHT22;51386;53.082;8.816;2022-12-29T09:04:51;12.70;81.20
64888;DHT22;51386;53.082;8.816;2022-12-29T09:07:18;12.70;80.60
64888;DHT22;51386;53.082;8.816;2022-12-29T09:09:45;12.80;81.00
64888;DHT22;51386;53.082;8.816;2022-12-29T09:12:12;12.80;80.50
64888;DHT22;51386;53.082;8.816;2022-12-29T09:14:39;12.80;80.20
64888;DHT22;51386;53.082;8.816;2022-12-29T09:17:07;12.80;80.30
64888;DHT22;51386;53.082;8.816;2022-12-29T09:19:53;12.80;80.20
64888;DHT22;51386;53.082;8.816;2022-12-29T09:22:20;12.90;80.10
64888;DHT22;51386;53.082;8.816;2022-12-29T09:24:47;12.90;79.70
64888;DHT22;51386;53.082;8.816;2022-12-29T09:27:13;12.90;79.70
64888;DHT22;51386;53.082;8.816;2022-12-29T09:29:41;12.80;78.60
64888;DHT22;51386;53.082;8.816;2022-12-29T09:32:09;12.90;78.40
64888;DHT22;51386;53.082;8.816;2022-12-29T09:34:42;12.90;79.40
64888;DHT22;51386;53.082;8.816;2022-12-29T09:37:09;12.80;77.80
64888;DHT22;51386;53.082;8.816;2022-12-29T09:39:36;12.90;78.00
64888;DHT22;51386;53.082;8.816;2022-12-29T09:42:08;12.90;77.70
64888;DHT22;51386;53.082;8.816;2022-12-29T09:44:48;13.00;77.90
64888;DHT22;51386;53.082;8.816;2022-12-29T09:47:24;13.00;77.70
64888;DHT22;51386;53.082;8.816;2022-12-29T09:49:54;13.10;76.60
64888;DHT22;51386;53.082;8.816;2022-12-29T09:52:28;13.10;76.90
64888;DHT22;51386;53.082;8.816;2022-12-29T09:55:01;13.10;76.60
64888;DHT22;51386;53.082;8.816;2022-12-29T09:57:42;13.10;76.50
64888;DHT22;51386;53.082;8.816;2022-12-29T10:00:16;13.10;76.20
64888;DHT22;51386;53.082;8.816;2022-12-29T10:02:49;13.10;76.10
64888;DHT22;51386;53.082;8.816;2022-12-29T10:05:29;13.10;76.40
64888;DHT22;51386;53.082;8.816;2022-12-29T10:08:26;13.20;77.00
64888;DHT22;51386;53.082;8.816;2022-12-29T10:11:05;13.20;77.10
64888;DHT22;51386;53.082;8.816;2022-12-29T10:13:50;13.30;76.20
64888;DHT22;51386;53.082;8.816;2022-12-29T10:16:48;13.20;75.10
64888;DHT22;51386;53.082;8.816;2022-12-29T10:19:38;13.30;75.60
64888;DHT22;51386;53.082;8.816;2022-12-29T10:22:28;13.20;75.10
64888;DHT22;51386;53.082;8.816;2022-12-29T10:25:12;13.20;75.60
64888;DHT22;51386;53.082;8.816;2022-12-29T10:27:43;13.10;74.50
64888;DHT22;51386;53.082;8.816;2022-12-29T10:30:15;13.20;75.00
64888;DHT22;51386;53.082;8.816;2022-12-29T10:32:45;13.20;74.60
64888;DHT22;51386;53.082;8.816;2022-12-29T10:35:20;13.10;73.80
64888;DHT22;51386;53.082;8.816;2022-12-29T10:37:52;13.20;74.30
64888;DHT22;51386;53.082;8.816;2022-12-29T10:40:28;13.20;74.20
64888;DHT22;51386;53.082;8.816;2022-12-29T10:43:00;13.20;74.10
64888;DHT22;51386;53.082;8.816;2022-12-29T10:45:32;13.20;74.00
64888;DHT22;51386;53.082;8.816;2022-12-29T10:48:03;13.20;74.30
64888;DHT22;51386;53.082;8.816;2022-12-29T10:50:34;13.30;74.90
64888;DHT22;51386;53.082;8.816;2022-12-29T10:53:04;13.30;75.30
64888;DHT22;51386;53.082;8.816;2022-12-29T10:55:35;13.30;75.60
64888;DHT22;51386;53.082;8.816;2022-12-29T10:58:06;13.30;75.80
64888;DHT22;51386;53.082;8.816;2022-12-29T11:00:38;13.30;76.00
64888;DHT22;51386;53.082;8.816;2022-12-29T11:03:34;13.30;76.20
64888;DHT22;51386;53.082;8.816;2022-12-29T11:06:21;13.30;76.50
64888;DHT22;51386;53.082;8.816;2022-12-29T11:08:56;13.20;76.80
64888;DHT22;51386;53.082;8.816;2022-12-29T11:11:27;13.20;77.10
64888;DHT22;51386;53.082;8.816;2022-12-29T11:14:07;13.10;77.20
64888;DHT22;51386;53.082;8.816;2022-12-29T11:16:40;13.10;77.20
64888;DHT22;51386;53.082;8.816;2022-12-29T11:19:20;13.10;77.30
64888;DHT22;51386;53.082;8.816;2022-12-29T11:21:51;13.00;77.00
64888;DHT22;51386;53.082;8.816;2022-12-29T11:24:21;13.10;77.40
64888;DHT22;51386;53.082;8.816;2022-12-29T11:26:51;13.10;76.80
64888;DHT22;51386;53.082;8.816;2022-12-29T11:29:23;13.10;76.40
64888;DHT22;51386;53.082;8.816;2022-12-29T11:31:52;13.10;76.00
64888;DHT22;51386;53.082;8.816;2022-12-29T11:34:23;13.20;75.70
64888;DHT22;51386;53.082;8.816;2022-12-29T11:37:00;13.20;75.00
64888;DHT22;51386;53.082;8.816;2022-12-29T11:39:36;13.30;74.90
64888;DHT22;51386;53.082;8.816;2022-12-29T11:42:12;13.30;74.30
64888;DHT22;51386;53.082;8.816;2022-12-29T11:44:44;13.40;73.70
64888;DHT22;51386;53.082;8.816;2022-12-29T11:47:23;13.40;73.40
64888;DHT22;51386;53.082;8.816;2022-12-29T11:49:58;13.50;73.10
64888;DHT22;51386;53.082;8.816;2022-12-29T11:52:32;13.50;73.10
64888;DHT22;51386;53.082;8.816;2022-12-29T11:55:03;13.50;72.20
64888;DHT22;51386;53.082;8.816;2022-12-29T11:57:34;13.60;71.70
64888;DHT22;51386;53.082;8.816;2022-12-29T12:00:06;13.60;72.00
64888;DHT22;51386;53.082;8.816;2022-12-29T12:02:45;13.60;71.50
64888;DHT22;51386;53.082;8.816;2022-12-29T12:05:23;13.60;71.40
64888;DHT22;51386;53.082;8.816;2022-12-29T12:07:59;13.60;70.70
64888;DHT22;51386;53.082;8.816;2022-12-29T12:10:38;13.60;70.30
64888;DHT22;51386;53.082;8.816;2022-12-29T12:13:25;13.70;70.90
64888;DHT22;51386;53.082;8.816;2022-12-29T12:16:04;13.70;70.80
64888;DHT22;51386;53.082;8.816;2022-12-29T12:18:40;13.70;70.70
64888;DHT22;51386;53.082;8.816;2022-12-29T12:21:23;13.70;70.40
64888;DHT22;51386;53.082;8.816;2022-12-29T12:24:20;13.70;70.70
64888;DHT22;51386;53.082;8.816;2022-12-29T12:26:59;13.70;70.90
64888;DHT22;51386;53.082;8.816;2022-12-29T12:29:35;13.70;71.00
64888;DHT22;51386;53.082;8.816;2022-12-29T12:32:13;13.70;71.00
64888;DHT22;51386;53.082;8.816;2022-12-29T12:34:46;13.70;71.00
64888;DHT22;51386;53.082;8.816;2022-12-29T12:40:34;13.70;70.70
64888;DHT22;51386;53.082;8.816;2022-12-29T12:43:22;13.70;71.20
64888;DHT22;51386;53.082;8.816;2022-12-29T12:46:19;13.70;71.00
64888;DHT22;51386;53.082;8.816;2022-12-29T12:49:13;13.70;71.30
64888;DHT22;51386;53.082;8.816;2022-12-29T12:52:00;13.70;71.80
64888;DHT22;51386;53.082;8.816;2022-12-29T12:54:51;13.70;72.40
64888;DHT22;51386;53.082;8.816;2022-12-29T12:57:45;13.70;73.60
64888;DHT22;51386;53.082;8.816;2022-12-29T13:00:21;13.70;73.20
64888;DHT22;51386;53.082;8.816;2022-12-29T13:02:59;13.60;73.50
64888;DHT22;51386;53.082;8.816;2022-12-29T13:05:50;13.60;73.80
64888;DHT22;51386;53.082;8.816;2022-12-29T13:08:58;13.50;73.80
64888;DHT22;51386;53.082;8.816;2022-12-29T13:11:51;13.50;73.80
64888;DHT22;51386;53.082;8.816;2022-12-29T13:14:40;13.40;74.40
64888;DHT22;51386;53.082;8.816;2022-12-29T13:17:21;13.30;74.80
64888;DHT22;51386;53.082;8.816;2022-12-29T13:19:59;13.30;75.20
64888;DHT22;51386;53.082;8.816;2022-12-29T13:22:40;13.20;75.40
64888;DHT22;51386;53.082;8.816;2022-12-29T13:25:25;13.20;75.80
64888;DHT22;51386;53.082;8.816;2022-12-29T13:28:04;13.20;76.10
64888;DHT22;51386;53.082;8.816;2022-12-29T13:30:44;13.10;76.50
64888;DHT22;51386;53.082;8.816;2022-12-29T13:33:23;13.10;76.80
64888;DHT22;51386;53.082;8.816;2022-12-29T13:36:01;13.10;76.70
64888;DHT22;51386;53.082;8.816;2022-12-29T13:38:35;13.10;76.80
64888;DHT22;51386;53.082;8.816;2022-12-29T13:41:06;13.10;76.70
64888;DHT22;51386;53.082;8.816;2022-12-29T13:43:38;13.00;76.60
64888;DHT22;51386;53.082;8.816;2022-12-29T13:46:23;13.00;76.60
64888;DHT22;51386;53.082;8.816;2022-12-29T13:48:58;12.90;76.10
64888;DHT22;51386;53.082;8.816;2022-12-29T13:51:29;12.90;76.10
64888;DHT22;51386;53.082;8.816;2022-12-29T13:54:07;12.90;75.70
64888;DHT22;51386;53.082;8.816;2022-12-29T13:56:49;12.80;75.70
64888;DHT22;51386;53.082;8.816;2022-12-29T13:59:28;12.80;75.20
64888;DHT22;51386;53.082;8.816;2022-12-29T14:02:19;12.80;75.20
64888;DHT22;51386;53.082;8.816;2022-12-29T14:05:02;12.80;75.30
64888;DHT22;51386;53.082;8.816;2022-12-29T14:07:37;12.70;75.20
64888;DHT22;51386;53.082;8.816;2022-12-29T14:10:06;12.70;75.10
64888;DHT22;51386;53.082;8.816;2022-12-29T14:13:00;12.70;75.20
64888;DHT22;51386;53.082;8.816;2022-12-29T14:15:31;12.70;75.10
64888;DHT22;51386;53.082;8.816;2022-12-29T14:18:14;12.70;75.20
64888;DHT22;51386;53.082;8.816;2022-12-29T14:20:53;12.70;75.30
64888;DHT22;51386;53.082;8.816;2022-12-29T14:23:35;12.70;75.40
64888;DHT22;51386;53.082;8.816;2022-12-29T14:26:13;12.70;75.50
64888;DHT22;51386;53.082;8.816;2022-12-29T14:28:44;12.60;75.50
64888;DHT22;51386;53.082;8.816;2022-12-29T14:31:34;12.70;75.70
64888;DHT22;51386;53.082;8.816;2022-12-29T14:34:39;12.60;75.70
64888;DHT22;51386;53.082;8.816;2022-12-29T14:37:24;12.60;75.80
64888;DHT22;51386;53.082;8.816;2022-12-29T14:40:04;12.60;76.00
64888;DHT22;51386;53.082;8.816;2022-12-29T14:42:33;12.60;76.10
64888;DHT22;51386;53.082;8.816;2022-12-29T14:45:05;12.60;76.10
64888;DHT22;51386;53.082;8.816;2022-12-29T14:47:37;12.60;76.20
64888;DHT22;51386;53.082;8.816;2022-12-29T14:50:13;12.50;76.30
64888;DHT22;51386;53.082;8.816;2022-12-29T14:52:46;12.50;76.50
64888;DHT22;51386;53.082;8.816;2022-12-29T14:55:37;12.50;76.60
64888;DHT22;51386;53.082;8.816;2022-12-29T14:58:12;12.50;76.80
64888;DHT22;51386;53.082;8.816;2022-12-29T15:00:44;12.50;77.30
64888;DHT22;51386;53.082;8.816;2022-12-29T15:03:18;12.50;78.10
64888;DHT22;51386;53.082;8.816;2022-12-29T15:05:52;12.50;78.20
64888;DHT22;51386;53.082;8.816;2022-12-29T15:08:22;12.40;78.50
64888;DHT22;51386;53.082;8.816;2022-12-29T15:10:55;12.40;78.70
64888;DHT22;51386;53.082;8.816;2022-12-29T15:13:34;12.40;78.70
64888;DHT22;51386;53.082;8.816;2022-12-29T15:16:03;12.30;78.80
64888;DHT22;51386;53.082;8.816;2022-12-29T15:18:32;12.30;79.00
64888;DHT22;51386;53.082;8.816;2022-12-29T15:21:03;12.30;79.10
64888;DHT22;51386;53.082;8.816;2022-12-29T15:23:33;12.40;79.10
64888;DHT22;51386;53.082;8.816;2022-12-29T15:26:03;12.30;79.20
64888;DHT22;51386;53.082;8.816;2022-12-29T15:28:37;12.30;79.10
64888;DHT22;51386;53.082;8.816;2022-12-29T15:31:11;12.30;77.90
64888;DHT22;51386;53.082;8.816;2022-12-29T15:33:41;12.30;77.90
64888;DHT22;51386;53.082;8.816;2022-12-29T15:36:13;12.30;77.70
64888;DHT22;51386;53.082;8.816;2022-12-29T15:38:45;12.30;77.50
64888;DHT22;51386;53.082;8.816;2022-12-29T15:41:27;12.20;77.00
64888;DHT22;51386;53.082;8.816;2022-12-29T15:44:23;12.20;77.00
64888;DHT22;51386;53.082;8.816;2022-12-29T15:46:52;12.20;77.20
64888;DHT22;51386;53.082;8.816;2022-12-29T15:49:20;12.20;77.30
64888;DHT22;51386;53.082;8.816;2022-12-29T15:51:54;12.20;77.50
64888;DHT22;51386;53.082;8.816;2022-12-29T15:54:23;12.20;77.70
64888;DHT22;51386;53.082;8.816;2022-12-29T15:56:52;12.20;78.00
64888;DHT22;51386;53.082;8.816;2022-12-29T15:59:27;12.10;78.00
64888;DHT22;51386;53.082;8.816;2022-12-29T16:01:57;12.10;78.30
64888;DHT22;51386;53.082;8.816;2022-12-29T16:04:29;12.10;78.30
64888;DHT22;51386;53.082;8.816;2022-12-29T16:07:26;12.00;78.40
64888;DHT22;51386;53.082;8.816;2022-12-29T16:10:02;12.00;78.60
64888;DHT22;51386;53.082;8.816;2022-12-29T16:12:33;11.90;79.00
64888;DHT22;51386;53.082;8.816;2022-12-29T16:15:03;11.90;79.50
64888;DHT22;51386;53.082;8.816;2022-12-29T16:17:37;11.90;79.60